createdAt,value
2023-04-02T00:00:10.658Z,100599.19
2023-04-02T00:02:49.047Z,100611.78
2023-04-02T00:05:19.734Z,100609.50
2023-04-02T00:07:51.686Z,100612.75
2023-04-02T00:10:33.533Z,100611.34
2023-04-02T00:13:31.904Z,100606.72
2023-04-02T00:16:00.016Z,100622.66
2023-04-02T00:18:27.686Z,100629.25
2023-04-02T00:21:19.418Z,100626.13
2023-04-02T00:23:46.291Z,100630.97
2023-04-02T00:26:29.151Z,100638.19
2023-04-02T00:28:55.790Z,100637.44
2023-04-02T00:31:22.768Z,100642.34
2023-04-02T00:33:50.345Z,100651.47
2023-04-02T00:36:22.646Z,100657.88
2023-04-02T00:38:49.442Z,100657.53
2023-04-02T00:41:29.853Z,100659.28
2023-04-02T00:43:58.925Z,100662.19
2023-04-02T00:46:32.344Z,100674.16
2023-04-02T00:49:34.125Z,100678.50
2023-04-02T00:52:04.822Z,100678.22
2023-04-02T00:54:40.430Z,100681.63
2023-04-02T00:57:18.335Z,100683.72
2023-04-02T00:59:55.165Z,100686.94
2023-04-02T01:02:26.744Z,100690.06
2023-04-02T01:05:04.350Z,100687.28
2023-04-02T01:07:55.972Z,100698.75
2023-04-02T01:11:04.089Z,100707.63
2023-04-02T01:13:30.664Z,100709.22
2023-04-02T01:16:11.616Z,100719.94
2023-04-02T01:18:38.246Z,100730.09
2023-04-02T01:21:26.113Z,100721.53
2023-04-02T01:23:52.804Z,100731.66
2023-04-02T01:26:32.264Z,100727.78
2023-04-02T01:29:24.785Z,100743.84
2023-04-02T01:31:54.107Z,100739.91
2023-04-02T01:34:26.024Z,100750.41
2023-04-02T01:37:24.042Z,100747.66
2023-04-02T01:40:06.013Z,100758.84
2023-04-02T01:43:04.009Z,100756.38
2023-04-02T01:45:31.080Z,100763.03
2023-04-02T01:47:58.868Z,100763.19
2023-04-02T01:50:38.691Z,100772.00
2023-04-02T01:53:12.088Z,100777.72
2023-04-02T01:55:38.625Z,100772.81
2023-04-02T01:58:05.722Z,100786.69
2023-04-02T02:00:34.771Z,100788.16
2023-04-02T02:03:02.506Z,100793.78
2023-04-02T02:05:29.925Z,100794.94
2023-04-02T02:07:58.387Z,100802.66
2023-04-02T02:10:34.077Z,100805.66
2023-04-02T02:13:01.047Z,100811.97
2023-04-02T02:15:29.072Z,100811.88
2023-04-02T02:18:00.539Z,100811.84
2023-04-02T02:20:29.075Z,100818.53
2023-04-02T02:22:57.093Z,100820.16
2023-04-02T02:25:31.015Z,100815.34
2023-04-02T02:28:17.819Z,100831.38
2023-04-02T02:30:49.504Z,100827.69
2023-04-02T02:33:29.084Z,100834.91
2023-04-02T02:36:03.363Z,100846.28
2023-04-02T02:39:07.131Z,100848.75
2023-04-02T02:41:37.906Z,100846.78
2023-04-02T02:44:14.806Z,100857.28
2023-04-02T02:47:05.289Z,100857.06
2023-04-02T02:49:39.449Z,100862.59
2023-04-02T02:52:08.983Z,100870.06
2023-04-02T02:54:38.217Z,100863.78
2023-04-02T02:57:10.413Z,100879.03
2023-04-02T02:59:38.434Z,100881.63
2023-04-02T03:02:07.299Z,100879.56
2023-04-02T03:04:35.853Z,100892.16
2023-04-02T03:07:03.913Z,100897.22
2023-04-02T03:09:39.880Z,100895.78
2023-04-02T03:12:21.676Z,100902.88
2023-04-02T03:14:52.913Z,100916.31
2023-04-02T03:17:27.060Z,100918.41
2023-04-02T03:20:02.133Z,100922.28
2023-04-02T03:22:35.975Z,100926.81
2023-04-02T03:25:13.808Z,100927.97
2023-04-02T03:27:43.684Z,100926.94
2023-04-02T03:30:28.013Z,100944.91
2023-04-02T03:33:01.083Z,100937.09
2023-04-02T03:35:36.241Z,100947.44
2023-04-02T03:38:30.487Z,100945.19
2023-04-02T03:41:00.104Z,100962.50
2023-04-02T03:43:32.178Z,100958.16
2023-04-02T03:46:24.397Z,100954.91
2023-04-02T03:48:56.157Z,100956.28
2023-04-02T03:51:32.366Z,100966.72
2023-04-02T03:53:59.173Z,100964.78
2023-04-02T03:56:40.006Z,100976.13
2023-04-02T03:59:22.955Z,100984.72
2023-04-02T04:01:59.062Z,100980.16
2023-04-02T04:04:28.515Z,100999.97
2023-04-02T04:06:57.684Z,101005.75
2023-04-02T04:09:35.477Z,101004.69
2023-04-02T04:12:14.685Z,101011.91
2023-04-02T04:14:46.126Z,101014.41
2023-04-02T04:17:24.828Z,101014.41
2023-04-02T04:20:01.865Z,101022.19
2023-04-02T04:22:30.514Z,101026.97
2023-04-02T04:25:03.051Z,101026.44
2023-04-02T04:27:36.079Z,101025.78
2023-04-02T04:30:47.158Z,101032.63
2023-04-02T04:33:23.263Z,101056.81
2023-04-02T04:36:41.512Z,101061.13
2023-04-02T04:39:24.006Z,101057.47
2023-04-02T04:41:52.364Z,101062.69
2023-04-02T04:44:23.711Z,101070.00
2023-04-02T04:46:56.335Z,101073.75
2023-04-02T04:49:28.476Z,101072.19
2023-04-02T04:51:59.838Z,101080.38
2023-04-02T04:54:28.201Z,101082.66
2023-04-02T04:57:02.651Z,101085.81
2023-04-02T04:59:42.056Z,101089.50
2023-04-02T05:02:23.092Z,101099.66
2023-04-02T05:04:52.210Z,101099.75
2023-04-02T05:07:31.521Z,101108.44
2023-04-02T05:10:17.262Z,101122.00
2023-04-02T05:12:56.567Z,101118.59
2023-04-02T05:15:35.691Z,101130.63
2023-04-02T05:18:13.554Z,101130.47
2023-04-02T05:20:56.859Z,101134.94
2023-04-02T05:23:28.283Z,101143.63
2023-04-02T05:26:24.109Z,101138.94
2023-04-02T05:28:50.612Z,101143.38
2023-04-02T05:31:31.197Z,101147.03
2023-04-02T05:33:57.940Z,101150.47
2023-04-02T05:36:27.961Z,101155.00
2023-04-02T05:38:56.476Z,101161.94
2023-04-02T05:41:44.674Z,101165.50
2023-04-02T05:44:21.408Z,101167.00
2023-04-02T05:47:12.629Z,101170.75
2023-04-02T05:49:39.338Z,101180.53
2023-04-02T05:52:12.050Z,101183.34
2023-04-02T05:54:46.304Z,101185.66
2023-04-02T05:57:23.154Z,101192.63
2023-04-02T05:59:58.018Z,101187.88
2023-04-02T06:02:33.465Z,101201.59
2023-04-02T06:05:06.973Z,101200.72
2023-04-02T06:07:45.173Z,101213.50
2023-04-02T06:10:18.301Z,101211.75
2023-04-02T06:12:54.058Z,101213.47
2023-04-02T06:15:22.887Z,101218.66
2023-04-02T06:18:06.641Z,101232.66
2023-04-02T06:20:33.698Z,101239.06
2023-04-02T06:23:32.590Z,101232.47
2023-04-02T06:26:19.148Z,101244.44
2023-04-02T06:28:49.936Z,101246.69
2023-04-02T06:31:47.913Z,101251.97
2023-04-02T06:34:24.808Z,101250.84
2023-04-02T06:36:55.599Z,101258.28
2023-04-02T06:39:24.315Z,101278.63
2023-04-02T06:42:16.000Z,101280.25
2023-04-02T06:44:43.085Z,101284.06
2023-04-02T06:47:44.150Z,101282.31
2023-04-02T06:50:19.278Z,101284.91
2023-04-02T06:52:52.485Z,101292.53
2023-04-02T06:55:44.082Z,101294.16
2023-04-02T06:58:10.704Z,101300.81
2023-04-02T07:00:40.961Z,101299.09
2023-04-02T07:03:22.916Z,101296.75
2023-04-02T07:05:49.775Z,101306.78
2023-04-02T07:08:16.684Z,101294.88
2023-04-02T07:10:43.730Z,101308.81
2023-04-02T07:13:18.518Z,101304.75
2023-04-02T07:15:46.915Z,101310.91
2023-04-02T07:18:29.074Z,101312.25
2023-04-02T07:20:56.693Z,101310.38
2023-04-02T07:23:23.410Z,101321.44
2023-04-02T07:25:53.060Z,101318.91
2023-04-02T07:28:22.377Z,101317.69
2023-04-02T07:30:49.992Z,101328.03
2023-04-02T07:33:20.521Z,101321.75
2023-04-02T07:35:48.050Z,101332.56
2023-04-02T07:38:14.622Z,101332.97
2023-04-02T07:40:41.430Z,101338.56
2023-04-02T07:43:08.086Z,101353.28
2023-04-02T07:45:35.011Z,101338.00
2023-04-02T07:48:06.915Z,101347.28
2023-04-02T07:50:34.162Z,101348.88
2023-04-02T07:53:00.994Z,101360.56
2023-04-02T07:55:27.591Z,101358.63
2023-04-02T07:57:57.479Z,101368.25
2023-04-02T08:00:25.425Z,101374.47
2023-04-02T08:02:52.650Z,101373.94
2023-04-02T08:05:19.586Z,101377.03
2023-04-02T08:07:56.841Z,101373.34
2023-04-02T08:10:23.933Z,101386.03
2023-04-02T08:12:50.774Z,101382.34
2023-04-02T08:15:17.633Z,101382.59
2023-04-02T08:17:46.696Z,101389.34
2023-04-02T08:20:19.823Z,101391.94
2023-04-02T08:22:47.327Z,101393.03
2023-04-02T08:25:14.524Z,101393.41
2023-04-02T08:27:41.254Z,101398.47
2023-04-02T08:30:09.268Z,101415.69
2023-04-02T08:32:35.995Z,101408.47
2023-04-02T08:35:02.785Z,101405.16
2023-04-02T08:37:29.505Z,101418.16
2023-04-02T08:39:56.266Z,101418.63
2023-04-02T08:42:32.048Z,101432.84
2023-04-02T08:45:24.364Z,101433.56
2023-04-02T08:47:55.477Z,101431.38
2023-04-02T08:50:33.348Z,101441.69
2023-04-02T08:53:20.209Z,101450.41
2023-04-02T08:56:19.465Z,101451.94
2023-04-02T08:58:59.473Z,101466.66
2023-04-02T09:01:44.164Z,101457.50
2023-04-02T09:04:18.846Z,101459.25
2023-04-02T09:06:47.210Z,101477.16
2023-04-02T09:09:15.665Z,101475.78
2023-04-02T09:11:51.807Z,101478.56
2023-04-02T09:14:29.222Z,101478.38
2023-04-02T09:17:01.944Z,101469.94
2023-04-02T09:19:44.563Z,101472.25
2023-04-02T09:22:23.516Z,101476.38
2023-04-02T09:25:04.833Z,101478.91
2023-04-02T09:27:36.554Z,101491.84
2023-04-02T09:30:32.246Z,101487.78
2023-04-02T09:33:02.551Z,101491.59
2023-04-02T09:35:32.577Z,101505.44
2023-04-02T09:38:19.605Z,101512.00
2023-04-02T09:40:49.038Z,101510.59
2023-04-02T09:43:22.255Z,101520.78
2023-04-02T09:46:01.090Z,101527.63
2023-04-02T09:49:04.729Z,101531.97
2023-04-02T09:51:35.404Z,101537.34
2023-04-02T09:54:05.352Z,101541.06
2023-04-02T09:56:40.279Z,101536.53
2023-04-02T09:59:13.914Z,101544.91
2023-04-02T10:01:57.702Z,101549.28
2023-04-02T10:04:34.783Z,101551.06
2023-04-02T10:07:03.178Z,101562.47
2023-04-02T10:09:59.898Z,101561.66
2023-04-02T10:15:35.912Z,101555.28
2023-04-02T10:18:44.118Z,101575.41
2023-04-02T10:21:15.705Z,101562.53
2023-04-02T10:23:42.278Z,101564.50
2023-04-02T10:26:11.902Z,101565.09
2023-04-02T10:28:57.131Z,101558.66
2023-04-02T10:31:31.738Z,101559.81
2023-04-02T10:34:04.100Z,101563.91
2023-04-02T10:36:48.309Z,101559.09
2023-04-02T10:39:31.729Z,101568.03
2023-04-02T10:42:01.673Z,101571.78
2023-04-02T10:44:38.504Z,101571.31
2023-04-02T10:47:27.145Z,101581.63
2023-04-02T10:50:03.188Z,101572.47
2023-04-02T10:52:36.511Z,101572.47
2023-04-02T10:55:15.853Z,101587.28
2023-04-02T10:57:44.746Z,101588.22
2023-04-02T11:00:12.189Z,101595.47
2023-04-02T11:02:49.614Z,101598.25
2023-04-02T11:05:32.171Z,101604.63
2023-04-02T11:08:26.124Z,101607.06
2023-04-02T11:11:14.765Z,101599.38
2023-04-02T11:14:05.137Z,101620.03
2023-04-02T11:16:54.983Z,101622.50
2023-04-02T11:19:41.341Z,101630.22
2023-04-02T11:22:33.580Z,101631.97
2023-04-02T11:28:25.253Z,101622.38
2023-04-02T11:31:03.533Z,101633.28
2023-04-02T11:33:56.647Z,101635.53
2023-04-02T11:54:13.778Z,101677.53
2023-04-02T11:57:10.144Z,101660.53
2023-04-02T12:00:30.537Z,101673.16
2023-04-02T12:06:43.046Z,101688.41
2023-04-02T12:10:26.528Z,101689.75
2023-04-02T12:13:08.993Z,101682.66
2023-04-02T12:24:50.596Z,101677.16
2023-04-02T12:27:43.403Z,101695.31
2023-04-02T12:30:48.689Z,101694.81
2023-04-02T12:33:52.159Z,101700.69
2023-04-02T12:36:38.738Z,101703.75
2023-04-02T12:39:28.361Z,101704.84
2023-04-02T12:46:09.034Z,101707.41
2023-04-02T12:49:16.911Z,101717.28
2023-04-02T12:55:02.335Z,101711.75
2023-04-02T12:57:47.330Z,101720.09
2023-04-02T13:16:27.084Z,101740.78
2023-04-02T13:19:27.396Z,101729.69
2023-04-02T13:22:42.222Z,101731.28
2023-04-02T13:25:30.989Z,101735.34
2023-04-02T13:28:22.254Z,101744.56
2023-04-02T13:34:07.737Z,101724.00
2023-04-02T13:36:56.877Z,101730.81
2023-04-02T13:39:31.015Z,101728.81
2023-04-02T13:45:56.270Z,101740.31
2023-04-02T13:49:33.935Z,101740.66
2023-04-02T13:58:23.571Z,101735.28
2023-04-02T14:01:24.451Z,101731.91
2023-04-02T14:04:19.552Z,101739.19
2023-04-02T14:19:26.863Z,101766.00
2023-04-02T14:36:45.639Z,101775.97
2023-04-02T14:55:30.059Z,101791.88
2023-04-02T14:59:12.006Z,101799.00
2023-04-02T15:04:55.487Z,101804.19
2023-04-02T15:07:47.043Z,101778.94
2023-04-02T15:14:10.584Z,101801.72
2023-04-02T15:16:48.492Z,101802.53
2023-04-02T15:19:41.612Z,101805.75
2023-04-02T15:22:30.049Z,101814.00
2023-04-02T15:25:15.344Z,101814.56
2023-04-02T15:28:02.892Z,101825.22
2023-04-02T15:30:52.380Z,101819.84
2023-04-02T15:33:31.411Z,101837.31
2023-04-02T15:36:36.174Z,101836.38
2023-04-02T15:39:44.626Z,101842.22
2023-04-02T15:42:31.888Z,101833.84
2023-04-02T15:45:29.913Z,101837.41
2023-04-02T15:48:40.294Z,101844.66
2023-04-02T15:51:32.148Z,101862.25
2023-04-02T15:54:26.468Z,101863.59
2023-04-02T15:57:16.088Z,101854.38
2023-04-02T16:00:26.760Z,101870.66
2023-04-02T16:03:32.538Z,101866.09
2023-04-02T16:06:03.377Z,101871.19
2023-04-02T16:08:57.578Z,101872.22
2023-04-02T16:11:26.952Z,101883.91
2023-04-02T16:14:06.679Z,101876.72
2023-04-02T16:16:42.420Z,101886.63
2023-04-02T16:19:32.565Z,101896.44
2023-04-02T16:22:16.334Z,101897.63
2023-04-02T16:24:49.339Z,101895.22
2023-04-02T16:27:29.358Z,101909.72
2023-04-02T16:30:20.413Z,101915.84
2023-04-02T16:33:10.721Z,101916.84
2023-04-02T16:36:01.336Z,101921.44
2023-04-02T16:38:51.105Z,101928.06
2023-04-02T16:42:06.082Z,101929.34
2023-04-02T16:44:57.455Z,101943.38
2023-04-02T16:47:51.626Z,101946.47
2023-04-02T16:50:37.318Z,101948.28
2023-04-02T16:53:38.666Z,101953.31
2023-04-02T16:56:28.113Z,101967.03
2023-04-02T16:59:12.170Z,101951.19
2023-04-02T17:01:53.085Z,101962.47
2023-04-02T17:04:32.202Z,101964.78
2023-04-02T17:07:23.924Z,101964.66
2023-04-02T17:10:02.241Z,101966.50
2023-04-02T17:12:47.150Z,101973.78
2023-04-02T17:15:28.638Z,101964.59
2023-04-02T17:18:01.874Z,101972.78
2023-04-02T17:20:29.415Z,101978.28
2023-04-02T17:22:57.060Z,101979.97
2023-04-02T17:25:26.925Z,101992.59
2023-04-02T17:27:55.958Z,101992.28
2023-04-02T17:30:43.648Z,102005.72
2023-04-02T17:33:15.373Z,102005.34
2023-04-02T17:35:57.149Z,102000.34
2023-04-02T17:38:45.127Z,102018.97
2023-04-02T17:41:35.722Z,102015.44
2023-04-02T17:44:14.869Z,102025.91
2023-04-02T17:47:23.970Z,102024.28
2023-04-02T17:49:57.366Z,102028.66
2023-04-02T17:52:56.741Z,102035.59
2023-04-02T17:55:57.356Z,102043.69
2023-04-02T17:58:48.483Z,102048.03
2023-04-02T18:01:33.586Z,102050.13
2023-04-02T18:04:28.169Z,102049.03
2023-04-02T18:07:04.705Z,102049.31
2023-04-02T18:09:38.340Z,102040.72
2023-04-02T18:12:23.416Z,102068.19
2023-04-02T18:15:07.218Z,102076.06
2023-04-02T18:17:52.599Z,102070.22
2023-04-02T18:20:36.996Z,102063.38
2023-04-02T18:23:16.294Z,102079.88
2023-04-02T18:25:56.139Z,102080.72
2023-04-02T18:28:34.860Z,102092.75
2023-04-02T18:31:30.607Z,102094.78
2023-04-02T18:34:39.307Z,102102.53
2023-04-02T18:37:17.465Z,102104.41
2023-04-02T18:40:07.007Z,102099.63
2023-04-02T18:43:11.293Z,102114.78
2023-04-02T18:46:05.582Z,102120.09
2023-04-02T18:48:47.385Z,102125.28
2023-04-02T18:51:22.056Z,102127.94
2023-04-02T18:53:53.655Z,102129.97
2023-04-02T18:56:23.485Z,102133.47
2023-04-02T18:59:04.997Z,102146.38
2023-04-02T19:01:39.892Z,102140.38
2023-04-02T19:04:14.029Z,102143.19
2023-04-02T19:07:13.922Z,102158.72
2023-04-02T19:09:44.426Z,102152.03
2023-04-02T19:12:20.514Z,102156.88
2023-04-02T19:14:50.245Z,102162.22
2023-04-02T19:17:36.074Z,102166.56
2023-04-02T19:20:27.059Z,102175.31
2023-04-02T19:23:01.738Z,102171.00
2023-04-02T19:25:44.979Z,102173.75
2023-04-02T19:28:57.272Z,102175.47
2023-04-02T19:31:44.892Z,102180.63
2023-04-02T19:34:32.580Z,102183.13
2023-04-02T19:36:59.391Z,102183.28
2023-04-02T19:39:53.590Z,102191.13
2023-04-02T19:42:46.266Z,102192.88
2023-04-02T19:45:44.537Z,102186.94
2023-04-02T19:48:21.078Z,102188.59
2023-04-02T19:50:49.242Z,102195.66
2023-04-02T19:53:16.936Z,102196.41
2023-04-02T19:55:44.906Z,102193.09
2023-04-02T19:58:28.410Z,102210.31
2023-04-02T20:00:56.019Z,102200.91
2023-04-02T20:03:23.366Z,102201.69
2023-04-02T20:05:50.865Z,102202.59
2023-04-02T20:08:18.314Z,102207.84
2023-04-02T20:10:45.840Z,102220.75
2023-04-02T20:13:12.478Z,102219.16
2023-04-02T20:15:40.558Z,102223.50
2023-04-02T20:18:07.623Z,102217.56
2023-04-02T20:20:34.565Z,102233.19
2023-04-02T20:23:01.743Z,102233.94
2023-04-02T20:25:28.386Z,102243.44
2023-04-02T20:27:54.981Z,102245.25
2023-04-02T20:30:21.637Z,102244.31
2023-04-02T20:32:48.716Z,102249.50
2023-04-02T20:35:15.531Z,102246.97
2023-04-02T20:37:42.149Z,102249.53
2023-04-02T20:40:10.008Z,102259.97
2023-04-02T20:42:36.758Z,102259.00
2023-04-02T20:45:05.202Z,102273.63
2023-04-02T20:47:32.159Z,102265.88
2023-04-02T20:49:58.793Z,102271.97
2023-04-02T20:52:25.486Z,102273.72
2023-04-02T20:54:52.178Z,102276.44
2023-04-02T20:57:21.814Z,102261.84
2023-04-02T20:59:49.281Z,102271.28
2023-04-02T21:02:16.314Z,102274.75
2023-04-02T21:04:43.134Z,102274.78
2023-04-02T21:07:09.827Z,102271.28
2023-04-02T21:09:36.464Z,102283.31
2023-04-02T21:12:03.070Z,102282.47
2023-04-02T21:14:35.613Z,102281.66
2023-04-02T21:17:02.354Z,102280.84
2023-04-02T21:19:29.358Z,102294.59
2023-04-02T21:21:56.018Z,102291.16
2023-04-02T21:24:23.350Z,102275.66
2023-04-02T21:26:50.766Z,102298.03
2023-04-02T21:29:18.029Z,102295.50
2023-04-02T21:31:44.730Z,102295.53
2023-04-02T21:34:16.603Z,102299.81
2023-04-02T21:36:45.957Z,102304.97
2023-04-02T21:39:18.740Z,102304.13
2023-04-02T21:41:46.930Z,102304.97
2023-04-02T21:44:15.882Z,102312.72
2023-04-02T21:46:43.821Z,102315.31
2023-04-02T21:49:16.651Z,102319.63
2023-04-02T21:51:45.662Z,102317.94
2023-04-02T21:54:13.527Z,102319.66
2023-04-02T21:56:42.773Z,102318.81
2023-04-02T21:59:11.772Z,102324.00
2023-04-02T22:01:41.493Z,102333.44
2023-04-02T22:04:11.767Z,102321.44
2023-04-02T22:06:41.076Z,102325.72
2023-04-02T22:09:11.007Z,102346.41
2023-04-02T22:11:40.760Z,102342.94
2023-04-02T22:14:07.858Z,102348.09
2023-04-02T22:16:35.488Z,102347.25
2023-04-02T22:19:05.616Z,102345.53
2023-04-02T22:21:33.050Z,102352.44
2023-04-02T22:24:03.880Z,102348.97
2023-04-02T22:26:31.590Z,102358.44
2023-04-02T22:28:58.585Z,102357.59
2023-04-02T22:31:27.819Z,102364.47
2023-04-02T22:33:55.792Z,102358.47
2023-04-02T22:36:23.271Z,102364.50
2023-04-02T22:38:51.019Z,102361.91
2023-04-02T22:41:21.868Z,102352.44
2023-04-02T22:43:48.887Z,102367.06
2023-04-02T22:46:17.984Z,102373.09
2023-04-02T22:48:46.175Z,102387.72
2023-04-02T22:51:15.384Z,102392.88
2023-04-02T22:53:43.114Z,102380.81
2023-04-02T22:56:16.175Z,102389.44
2023-04-02T22:58:43.129Z,102381.72
2023-04-02T23:01:19.732Z,102378.25
2023-04-02T23:03:46.462Z,102392.03
2023-04-02T23:06:15.638Z,102382.56
2023-04-02T23:08:42.728Z,102394.59
2023-04-02T23:11:15.521Z,102397.19
2023-04-02T23:13:42.976Z,102409.22
2023-04-02T23:16:13.139Z,102403.22
2023-04-02T23:18:41.483Z,102411.81
2023-04-02T23:21:09.521Z,102399.75
2023-04-02T23:23:36.766Z,102412.66
2023-04-02T23:26:17.269Z,102404.06
2023-04-02T23:28:44.444Z,102400.63
2023-04-02T23:31:14.025Z,102410.94
2023-04-02T23:33:40.662Z,102413.50
2023-04-02T23:36:09.880Z,102419.53
2023-04-02T23:38:36.738Z,102414.38
2023-04-02T23:41:03.443Z,102418.69
2023-04-02T23:43:30.117Z,102412.66
2023-04-02T23:45:56.796Z,102414.38
2023-04-02T23:48:23.531Z,102419.53
2023-04-02T23:50:50.201Z,102421.25
2023-04-02T23:53:16.837Z,102425.53
2023-04-02T23:55:43.484Z,102414.34
2023-04-02T23:58:10.163Z,102422.09
